sensor_id;sensor_type;location;lat;lon;timestamp;temperature;humidity
52139;DHT22;38131;53.256;6.460;2023-04-03T15:29:23;8.90;96.10
52139;DHT22;38131;53.256;6.460;2023-04-03T15:31:56;9.00;96.00
52139;DHT22;38131;53.256;6.460;2023-04-03T15:34:22;9.00;95.60
52139;DHT22;38131;53.256;6.460;2023-04-03T15:37:19;9.00;96.00
52139;DHT22;38131;53.256;6.460;2023-04-03T15:39:51;8.90;95.40
52139;DHT22;38131;53.256;6.460;2023-04-03T15:47:55;8.80;95.40
52139;DHT22;38131;53.256;6.460;2023-04-03T15:50:34;8.70;95.80
52139;DHT22;38131;53.256;6.460;2023-04-03T15:56:11;8.50;95.90
52139;DHT22;38131;53.256;6.460;2023-04-03T15:58:59;8.40;96.00
52139;DHT22;38131;53.256;6.460;2023-04-03T16:01:28;8.60;96.00
52139;DHT22;38131;53.256;6.460;2023-04-03T16:04:14;8.20;96.20
52139;DHT22;38131;53.256;6.460;2023-04-03T16:06:41;8.10;96.60
52139;DHT22;38131;53.256;6.460;2023-04-03T16:12:48;8.00;97.50
52139;DHT22;38131;53.256;6.460;2023-04-03T16:15:14;8.10;98.20
52139;DHT22;38131;53.256;6.460;2023-04-03T16:17:43;8.00;97.80
52139;DHT22;38131;53.256;6.460;2023-04-03T16:20:36;7.90;97.70
52139;DHT22;38131;53.256;6.460;2023-04-03T16:26:29;7.90;98.70
52139;DHT22;38131;53.256;6.460;2023-04-03T16:29:04;7.80;99.30
52139;DHT22;38131;53.256;6.460;2023-04-03T16:31:33;8.50;99.10
52139;DHT22;38131;53.256;6.460;2023-04-03T16:34:15;7.70;98.50
52139;DHT22;38131;53.256;6.460;2023-04-03T16:36:59;7.70;99.30
52139;DHT22;38131;53.256;6.460;2023-04-03T16:40:37;7.50;99.50
52139;DHT22;38131;53.256;6.460;2023-04-03T16:43:32;7.50;99.90
52139;DHT22;38131;53.256;6.460;2023-04-03T16:46:08;7.40;99.70
52139;DHT22;38131;53.256;6.460;2023-04-03T16:48:33;7.30;99.60
52139;DHT22;38131;53.256;6.460;2023-04-03T16:51:00;7.20;99.90
52139;DHT22;38131;53.256;6.460;2023-04-03T16:53:26;7.20;99.90
52139;DHT22;38131;53.256;6.460;2023-04-03T16:56:11;7.20;99.90
52139;DHT22;38131;53.256;6.460;2023-04-03T17:02:24;7.10;99.90
52139;DHT22;38131;53.256;6.460;2023-04-03T17:04:52;7.00;99.90
52139;DHT22;38131;53.256;6.460;2023-04-03T17:07:26;6.90;99.90
52139;DHT22;38131;53.256;6.460;2023-04-03T17:12:21;6.70;99.90
52139;DHT22;38131;53.256;6.460;2023-04-03T17:15:17;6.80;99.90
52139;DHT22;38131;53.256;6.460;2023-04-03T17:17:46;6.80;99.90
52139;DHT22;38131;53.256;6.460;2023-04-03T17:20:15;6.50;99.90
52139;DHT22;38131;53.256;6.460;2023-04-03T17:22:57;6.50;99.90
52139;DHT22;38131;53.256;6.460;2023-04-03T17:25:23;7.50;99.90
52139;DHT22;38131;53.256;6.460;2023-04-03T17:27:49;6.40;99.90
52139;DHT22;38131;53.256;6.460;2023-04-03T17:30:15;6.70;99.90
52139;DHT22;38131;53.256;6.460;2023-04-03T17:32:44;6.40;99.90
52139;DHT22;38131;53.256;6.460;2023-04-03T17:39:17;6.10;99.90
52139;DHT22;38131;53.256;6.460;2023-04-03T17:42:02;6.00;99.90
52139;DHT22;38131;53.256;6.460;2023-04-03T17:44:34;5.90;99.90
52139;DHT22;38131;53.256;6.460;2023-04-03T17:53:48;5.80;99.90
52139;DHT22;38131;53.256;6.460;2023-04-03T17:59:20;5.40;99.90
52139;DHT22;38131;53.256;6.460;2023-04-03T18:01:46;5.50;99.90
52139;DHT22;38131;53.256;6.460;2023-04-03T18:15:28;5.00;99.90
52139;DHT22;38131;53.256;6.460;2023-04-03T18:25:32;4.70;99.90
52139;DHT22;38131;53.256;6.460;2023-04-03T18:28:38;4.70;99.90
52139;DHT22;38131;53.256;6.460;2023-04-03T18:31:07;4.50;99.90
52139;DHT22;38131;53.256;6.460;2023-04-03T18:37:54;4.50;99.90
52139;DHT22;38131;53.256;6.460;2023-04-03T18:48:14;4.20;99.90
52139;DHT22;38131;53.256;6.460;2023-04-03T19:01:22;3.10;99.90
52139;DHT22;38131;53.256;6.460;2023-04-03T19:07:32;4.10;99.90
52139;DHT22;38131;53.256;6.460;2023-04-03T19:17:34;3.80;99.90
52139;DHT22;38131;53.256;6.460;2023-04-03T19:34:59;3.50;99.90
52139;DHT22;38131;53.256;6.460;2023-04-03T22:13:55;2.60;99.90
52139;DHT22;38131;53.256;6.460;2023-04-03T22:28:23;2.70;99.90
52139;DHT22;38131;53.256;6.460;2023-04-03T22:35:10;2.60;99.90
52139;DHT22;38131;53.256;6.460;2023-04-03T22:41:20;2.50;99.90
52139;DHT22;38131;53.256;6.460;2023-04-03T22:43:48;2.40;99.90
52139;DHT22;38131;53.256;6.460;2023-04-03T22:46:19;2.40;99.90
52139;DHT22;38131;53.256;6.460;2023-04-03T22:48:46;2.40;99.90
52139;DHT22;38131;53.256;6.460;2023-04-03T22:51:19;2.40;99.90
52139;DHT22;38131;53.256;6.460;2023-04-03T22:53:45;3.60;99.90
52139;DHT22;38131;53.256;6.460;2023-04-03T22:58:41;2.40;99.90
52139;DHT22;38131;53.256;6.460;2023-04-03T23:01:21;2.20;99.90
52139;DHT22;38131;53.256;6.460;2023-04-03T23:03:50;2.30;99.90
52139;DHT22;38131;53.256;6.460;2023-04-03T23:06:16;2.40;99.90
52139;DHT22;38131;53.256;6.460;2023-04-03T23:11:58;2.40;99.90
52139;DHT22;38131;53.256;6.460;2023-04-03T23:14:33;3.60;99.90
52139;DHT22;38131;53.256;6.460;2023-04-03T23:19:31;2.50;99.90
52139;DHT22;38131;53.256;6.460;2023-04-03T23:22:17;3.40;99.90
52139;DHT22;38131;53.256;6.460;2023-04-03T23:24:43;2.30;99.90
52139;DHT22;38131;53.256;6.460;2023-04-03T23:27:18;2.30;99.90
52139;DHT22;38131;53.256;6.460;2023-04-03T23:30:08;2.30;99.90
52139;DHT22;38131;53.256;6.460;2023-04-03T23:32:49;1.60;99.90
52139;DHT22;38131;53.256;6.460;2023-04-03T23:35:15;2.30;99.90
52139;DHT22;38131;53.256;6.460;2023-04-03T23:37:42;2.20;99.90
52139;DHT22;38131;53.256;6.460;2023-04-03T23:40:09;2.20;99.90
52139;DHT22;38131;53.256;6.460;2023-04-03T23:45:07;2.20;99.90
52139;DHT22;38131;53.256;6.460;2023-04-03T23:47:33;2.10;99.90
52139;DHT22;38131;53.256;6.460;2023-04-03T23:50:05;1.20;99.90
52139;DHT22;38131;53.256;6.460;2023-04-03T23:52:33;2.10;99.90
52139;DHT22;38131;53.256;6.460;2023-04-03T23:54:59;2.10;99.90
52139;DHT22;38131;53.256;6.460;2023-04-03T23:57:25;2.10;99.90
52139;DHT22;38131;53.256;6.460;2023-04-03T23:59:54;2.10;99.90
